首页
METAR-TAF:

METAR-TAF

机场 :

杰克逊, 怀俄明州, 美国

纬度: 43-36N, 经度: 110-44W, 海拔: 1964米

当前天气观测

该预报发布于43分钟前的20:15 UTC
风速5节,风向东转东南
温度 1°C
湿度 64%
气压 1014 hPa
能見度: 16.1公里
天空无云

METAR: KJAC 212015Z 12005KT 10SM CLR 01/M05 A2993 RMK AO2

时间: 13:58 (20:58 UTC)

预报

该预报发布于3小时和38分钟前的17:20 UTC
预报有效从21日的 18点(UTC)到 22日的 18点(UTC)
风速5节,风向
能見度: 10公里
散云层高于3500英尺
多云层高于9000英尺
从 22日的 0700点(UTC)
风速4节,风向北转东北
能見度: 10公里
散云层高于2500英尺
多云层高于4500英尺
附近有阵雨,

TAF: KJAC 211720Z 2118/2218 01005KT P6SM SCT035 BKN090 FM220700 02004KT P6SM VCSH SCT025 BKN045

超过4000个机场的气象观测和天气预报(METAR&TAF报告)。

可查询的气象台以黄色和红色小点在地图上表示。

将鼠标移到小点上方,可查看气象台名称。

然后点击查看天气观测和预报。

如需切换地图:点击带黑十字的绿色按钮放大地图;点击带横线的绿色按钮缩小地图;或者点击绿色箭头查看邻近地区的地图。


METAR-TAF: